sensor_id;sensor_type;location;lat;lon;timestamp;pressure;altitude;pressure_sealevel;temperature;humidity
5651;BME280;40241;52.684;9.758;2023-08-07T00:00:12;100379.63;;;20.67;59.22
5651;BME280;40241;52.684;9.758;2023-08-07T00:02:38;100380.03;;;20.63;59.05
5651;BME280;40241;52.684;9.758;2023-08-07T00:05:04;100369.97;;;20.60;59.37
5651;BME280;40241;52.684;9.758;2023-08-07T00:07:29;100369.06;;;20.58;59.41
5651;BME280;40241;52.684;9.758;2023-08-07T00:09:54;100372.25;;;20.54;59.72
5651;BME280;40241;52.684;9.758;2023-08-07T00:12:20;100376.34;;;20.53;59.49
5651;BME280;40241;52.684;9.758;2023-08-07T00:14:47;100381.75;;;20.51;59.69
5651;BME280;40241;52.684;9.758;2023-08-07T00:17:12;100376.19;;;20.51;59.85
5651;BME280;40241;52.684;9.758;2023-08-07T00:19:38;100378.78;;;20.49;59.67
5651;BME280;40241;52.684;9.758;2023-08-07T00:22:03;100374.69;;;20.50;59.76
5651;BME280;40241;52.684;9.758;2023-08-07T00:24:29;100373.38;;;20.51;59.89
5651;BME280;40241;52.684;9.758;2023-08-07T00:26:54;100372.66;;;20.51;59.74
5651;BME280;40241;52.684;9.758;2023-08-07T00:29:19;100374.13;;;20.52;59.86
5651;BME280;40241;52.684;9.758;2023-08-07T00:31:44;100373.38;;;20.51;59.87
5651;BME280;40241;52.684;9.758;2023-08-07T00:34:10;100380.28;;;20.50;59.98
5651;BME280;40241;52.684;9.758;2023-08-07T00:36:35;100374.69;;;20.50;60.15
5651;BME280;40241;52.684;9.758;2023-08-07T00:39:02;100382.34;;;20.50;60.06
5651;BME280;40241;52.684;9.758;2023-08-07T00:41:29;100383.09;;;20.50;60.02
5651;BME280;40241;52.684;9.758;2023-08-07T00:43:54;100386.63;;;20.51;60.28
5651;BME280;40241;52.684;9.758;2023-08-07T00:46:19;100380.28;;;20.50;60.18
5651;BME280;40241;52.684;9.758;2023-08-07T00:48:45;100379.72;;;20.52;60.16
5651;BME280;40241;52.684;9.758;2023-08-07T00:51:11;100376.00;;;20.49;60.26
5651;BME280;40241;52.684;9.758;2023-08-07T00:53:38;100382.34;;;20.50;60.27
5651;BME280;40241;52.684;9.758;2023-08-07T00:56:05;100381.59;;;20.49;60.33
5651;BME280;40241;52.684;9.758;2023-08-07T00:58:31;100385.13;;;20.50;60.37
5651;BME280;40241;52.684;9.758;2023-08-07T01:00:57;100379.38;;;20.48;60.41
5651;BME280;40241;52.684;9.758;2023-08-07T01:03:23;100382.75;;;20.46;60.38
5651;BME280;40241;52.684;9.758;2023-08-07T01:05:48;100384.44;;;20.42;60.54
5651;BME280;40241;52.684;9.758;2023-08-07T01:08:13;100380.16;;;20.41;60.59
5651;BME280;40241;52.684;9.758;2023-08-07T01:10:54;100385.00;;;20.40;60.84
5651;BME280;40241;52.684;9.758;2023-08-07T01:13:32;100379.06;;;20.36;60.80
5651;BME280;40241;52.684;9.758;2023-08-07T01:16:04;100386.69;;;20.36;60.60
5651;BME280;40241;52.684;9.758;2023-08-07T01:18:34;100380.38;;;20.35;60.74
5651;BME280;40241;52.684;9.758;2023-08-07T01:21:00;100383.19;;;20.35;60.78
5651;BME280;40241;52.684;9.758;2023-08-07T01:23:25;100374.03;;;20.35;60.85
5651;BME280;40241;52.684;9.758;2023-08-07T01:25:51;100373.28;;;20.34;60.90
5651;BME280;40241;52.684;9.758;2023-08-07T01:28:27;100377.41;;;20.33;60.99
5651;BME280;40241;52.684;9.758;2023-08-07T01:30:59;100380.22;;;20.33;60.86
5651;BME280;40241;52.684;9.758;2023-08-07T01:33:46;100369.75;;;20.34;61.43
5651;BME280;40241;52.684;9.758;2023-08-07T01:36:14;100370.50;;;20.34;60.88
5651;BME280;40241;52.684;9.758;2023-08-07T01:38:40;100375.72;;;20.38;60.83
5651;BME280;40241;52.684;9.758;2023-08-07T01:41:06;100370.13;;;20.38;61.03
5651;BME280;40241;52.684;9.758;2023-08-07T01:43:32;100372.34;;;20.39;60.93
5651;BME280;40241;52.684;9.758;2023-08-07T01:45:57;100363.78;;;20.37;61.01
5651;BME280;40241;52.684;9.758;2023-08-07T01:48:23;100368.06;;;20.38;61.04
5651;BME280;40241;52.684;9.758;2023-08-07T01:50:49;100359.13;;;20.40;61.26
5651;BME280;40241;52.684;9.758;2023-08-07T01:53:14;100358.38;;;20.39;61.13
5651;BME280;40241;52.684;9.758;2023-08-07T01:55:39;100354.09;;;20.38;61.28
5651;BME280;40241;52.684;9.758;2023-08-07T01:58:04;100352.63;;;20.37;61.06
5651;BME280;40241;52.684;9.758;2023-08-07T02:00:30;100356.53;;;20.34;61.20
5651;BME280;40241;52.684;9.758;2023-08-07T02:02:56;100349.66;;;20.35;61.17
5651;BME280;40241;52.684;9.758;2023-08-07T02:05:22;100350.94;;;20.34;61.17
5651;BME280;40241;52.684;9.758;2023-08-07T02:07:47;100350.94;;;20.34;61.43
5651;BME280;40241;52.684;9.758;2023-08-07T02:10:12;100352.44;;;20.35;61.42
5651;BME280;40241;52.684;9.758;2023-08-07T02:12:38;100359.16;;;20.32;61.36
5651;BME280;40241;52.684;9.758;2023-08-07T02:15:03;100352.09;;;20.31;61.37
5651;BME280;40241;52.684;9.758;2023-08-07T02:17:29;100353.41;;;20.30;61.32
5651;BME280;40241;52.684;9.758;2023-08-07T02:19:58;100360.28;;;20.29;61.47
5651;BME280;40241;52.684;9.758;2023-08-07T02:22:23;100360.28;;;20.29;61.36
5651;BME280;40241;52.684;9.758;2023-08-07T02:24:49;100355.66;;;20.24;61.66
5651;BME280;40241;52.684;9.758;2023-08-07T02:27:14;100369.63;;;20.24;61.60
5651;BME280;40241;52.684;9.758;2023-08-07T02:29:39;100358.28;;;20.22;61.53
5651;BME280;40241;52.684;9.758;2023-08-07T02:32:05;100363.13;;;20.22;61.55
5651;BME280;40241;52.684;9.758;2023-08-07T02:34:31;100364.06;;;20.24;61.56
5651;BME280;40241;52.684;9.758;2023-08-07T02:36:56;100367.97;;;20.21;61.50
5651;BME280;40241;52.684;9.758;2023-08-07T02:39:22;100374.31;;;20.22;61.70
5651;BME280;40241;52.684;9.758;2023-08-07T02:41:47;100368.13;;;20.23;61.52
5651;BME280;40241;52.684;9.758;2023-08-07T02:44:13;100373.56;;;20.21;61.53
5651;BME280;40241;52.684;9.758;2023-08-07T02:46:38;100373.56;;;20.21;61.63
5651;BME280;40241;52.684;9.758;2023-08-07T02:49:05;100379.88;;;20.14;61.52
5651;BME280;40241;52.684;9.758;2023-08-07T02:51:30;100383.25;;;20.12;61.68
5651;BME280;40241;52.684;9.758;2023-08-07T02:53:56;100382.31;;;20.10;61.89
5651;BME280;40241;52.684;9.758;2023-08-07T02:56:21;100378.06;;;20.09;61.85
5651;BME280;40241;52.684;9.758;2023-08-07T02:58:46;100374.53;;;20.08;61.96
5651;BME280;40241;52.684;9.758;2023-08-07T03:01:13;100370.22;;;20.07;61.91
5651;BME280;40241;52.684;9.758;2023-08-07T03:03:38;100369.13;;;20.03;61.88
5651;BME280;40241;52.684;9.758;2023-08-07T03:06:03;100373.06;;;20.00;62.07
5651;BME280;40241;52.684;9.758;2023-08-07T03:08:29;100378.09;;;20.01;61.96
5651;BME280;40241;52.684;9.758;2023-08-07T03:10:55;100378.09;;;20.01;62.04
5651;BME280;40241;52.684;9.758;2023-08-07T03:13:22;100381.81;;;20.04;61.78
5651;BME280;40241;52.684;9.758;2023-08-07T03:15:48;100390.00;;;20.02;61.92
5651;BME280;40241;52.684;9.758;2023-08-07T03:18:17;100376.22;;;20.04;62.11
5651;BME280;40241;52.684;9.758;2023-08-07T03:20:42;100369.34;;;20.05;62.01
5651;BME280;40241;52.684;9.758;2023-08-07T03:23:09;100376.78;;;20.02;62.04
5651;BME280;40241;52.684;9.758;2023-08-07T03:25:34;100372.31;;;19.99;62.08
5651;BME280;40241;52.684;9.758;2023-08-07T03:28:00;100370.66;;;19.96;62.13
5651;BME280;40241;52.684;9.758;2023-08-07T03:30:25;100376.22;;;19.96;62.21
5651;BME280;40241;52.684;9.758;2023-08-07T03:32:50;100391.50;;;19.95;62.11
5651;BME280;40241;52.684;9.758;2023-08-07T03:35:16;100382.38;;;19.95;62.15
5651;BME280;40241;52.684;9.758;2023-08-07T03:37:41;100385.94;;;19.95;62.17
5651;BME280;40241;52.684;9.758;2023-08-07T03:40:07;100380.75;;;19.92;62.19
5651;BME280;40241;52.684;9.758;2023-08-07T03:42:32;100386.69;;;19.88;62.49
5651;BME280;40241;52.684;9.758;2023-08-07T03:44:58;100384.31;;;19.85;62.30
5651;BME280;40241;52.684;9.758;2023-08-07T03:47:23;100381.50;;;19.85;62.42
5651;BME280;40241;52.684;9.758;2023-08-07T03:49:49;100381.50;;;19.85;62.38
5651;BME280;40241;52.684;9.758;2023-08-07T03:52:14;100385.59;;;19.84;62.25
5651;BME280;40241;52.684;9.758;2023-08-07T03:54:40;100391.91;;;19.84;62.41
5651;BME280;40241;52.684;9.758;2023-08-07T03:57:05;100385.41;;;19.82;62.45
5651;BME280;40241;52.684;9.758;2023-08-07T03:59:30;100383.00;;;19.78;62.32
5651;BME280;40241;52.684;9.758;2023-08-07T04:01:56;100385.63;;;19.76;62.53
5651;BME280;40241;52.684;9.758;2023-08-07T04:04:21;100388.25;;;19.74;62.51
5651;BME280;40241;52.684;9.758;2023-08-07T04:06:46;100384.34;;;19.70;62.78
5651;BME280;40241;52.684;9.758;2023-08-07T04:09:12;100388.44;;;19.69;62.54
5651;BME280;40241;52.684;9.758;2023-08-07T04:11:37;100395.16;;;19.66;62.72
5651;BME280;40241;52.684;9.758;2023-08-07T04:14:02;100393.09;;;19.66;62.58
5651;BME280;40241;52.684;9.758;2023-08-07T04:16:29;100397.94;;;19.66;62.65
5651;BME280;40241;52.684;9.758;2023-08-07T04:18:56;100390.13;;;19.64;62.87
5651;BME280;40241;52.684;9.758;2023-08-07T04:21:21;100396.09;;;19.61;62.79
5651;BME280;40241;52.684;9.758;2023-08-07T04:23:46;100402.97;;;19.60;62.75
5651;BME280;40241;52.684;9.758;2023-08-07T04:26:12;100405.56;;;19.58;62.87
5651;BME280;40241;52.684;9.758;2023-08-07T04:28:37;100407.44;;;19.55;63.02
5651;BME280;40241;52.684;9.758;2023-08-07T04:31:02;100403.53;;;19.51;63.02
5651;BME280;40241;52.684;9.758;2023-08-07T04:33:28;100406.72;;;19.47;63.26
5651;BME280;40241;52.684;9.758;2023-08-07T04:35:53;100408.75;;;19.47;63.18
5651;BME280;40241;52.684;9.758;2023-08-07T04:38:19;100402.97;;;19.44;63.20
5651;BME280;40241;52.684;9.758;2023-08-07T04:40:49;100418.78;;;19.42;63.42
5651;BME280;40241;52.684;9.758;2023-08-07T04:43:15;100410.81;;;19.38;63.18
5651;BME280;40241;52.684;9.758;2023-08-07T04:45:41;100418.81;;;19.34;63.60
5651;BME280;40241;52.684;9.758;2023-08-07T04:48:07;100409.13;;;19.35;63.43
5651;BME280;40241;52.684;9.758;2023-08-07T04:50:33;100416.22;;;19.36;63.44
5651;BME280;40241;52.684;9.758;2023-08-07T04:52:59;100411.91;;;19.35;63.44
5651;BME280;40241;52.684;9.758;2023-08-07T04:55:25;100408.91;;;19.33;63.77
5651;BME280;40241;52.684;9.758;2023-08-07T04:57:50;100415.06;;;19.32;63.42
5651;BME280;40241;52.684;9.758;2023-08-07T05:00:19;100415.63;;;19.30;63.66
5651;BME280;40241;52.684;9.758;2023-08-07T05:02:44;100421.41;;;19.32;63.71
5651;BME280;40241;52.684;9.758;2023-08-07T05:05:10;100423.63;;;19.34;63.73
5651;BME280;40241;52.684;9.758;2023-08-07T05:07:35;100425.09;;;19.27;63.57
5651;BME280;40241;52.684;9.758;2023-08-07T05:10:03;100421.56;;;19.27;63.63
5651;BME280;40241;52.684;9.758;2023-08-07T05:12:29;100432.94;;;19.21;64.05
5651;BME280;40241;52.684;9.758;2023-08-07T05:14:54;100432.16;;;19.21;63.88
5651;BME280;40241;52.684;9.758;2023-08-07T05:17:19;100438.84;;;19.18;64.07
5651;BME280;40241;52.684;9.758;2023-08-07T05:19:45;100445.56;;;19.15;63.98
5651;BME280;40241;52.684;9.758;2023-08-07T05:22:10;100442.59;;;19.13;63.85
5651;BME280;40241;52.684;9.758;2023-08-07T05:24:35;100434.75;;;19.11;64.15
5651;BME280;40241;52.684;9.758;2023-08-07T05:27:05;100437.56;;;19.11;63.91
5651;BME280;40241;52.684;9.758;2023-08-07T05:29:33;100435.91;;;19.08;64.12
5651;BME280;40241;52.684;9.758;2023-08-07T05:31:58;100436.66;;;19.09;63.96
5651;BME280;40241;52.684;9.758;2023-08-07T05:34:23;100450.03;;;19.10;64.13
5651;BME280;40241;52.684;9.758;2023-08-07T05:36:49;100445.91;;;19.11;63.89
5651;BME280;40241;52.684;9.758;2023-08-07T05:39:14;100450.03;;;19.10;63.87
5651;BME280;40241;52.684;9.758;2023-08-07T05:41:39;100442.94;;;19.09;64.03
5651;BME280;40241;52.684;9.758;2023-08-07T05:44:05;100445.19;;;19.11;64.20
5651;BME280;40241;52.684;9.758;2023-08-07T05:46:30;100457.81;;;19.12;64.08
5651;BME280;40241;52.684;9.758;2023-08-07T05:48:56;100451.50;;;19.11;64.04
5651;BME280;40241;52.684;9.758;2023-08-07T05:51:21;100451.50;;;19.11;64.25
5651;BME280;40241;52.684;9.758;2023-08-07T05:53:46;100451.69;;;19.13;64.10
5651;BME280;40241;52.684;9.758;2023-08-07T05:56:12;100449.81;;;19.16;64.27
5651;BME280;40241;52.684;9.758;2023-08-07T05:58:37;100451.31;;;19.17;64.12
5651;BME280;40241;52.684;9.758;2023-08-07T06:01:03;100451.91;;;19.15;64.28
5651;BME280;40241;52.684;9.758;2023-08-07T06:03:28;100450.22;;;19.12;64.29
5651;BME280;40241;52.684;9.758;2023-08-07T06:05:54;100451.50;;;19.11;64.31
5651;BME280;40241;52.684;9.758;2023-08-07T06:08:19;100458.56;;;19.12;64.52
5651;BME280;40241;52.684;9.758;2023-08-07T06:10:44;100455.22;;;19.14;64.35
5651;BME280;40241;52.684;9.758;2023-08-07T06:13:09;100456.53;;;19.13;64.60
5651;BME280;40241;52.684;9.758;2023-08-07T06:15:35;100453.19;;;19.14;64.26
5651;BME280;40241;52.684;9.758;2023-08-07T06:18:00;100451.69;;;19.13;64.40
5651;BME280;40241;52.684;9.758;2023-08-07T06:20:26;100453.19;;;19.14;64.54
5651;BME280;40241;52.684;9.758;2023-08-07T06:22:51;100463.78;;;19.16;64.40
5651;BME280;40241;52.684;9.758;2023-08-07T06:25:16;100462.09;;;19.20;64.52
5651;BME280;40241;52.684;9.758;2023-08-07T06:27:43;100454.09;;;19.24;64.46
5651;BME280;40241;52.684;9.758;2023-08-07T06:30:09;100458.97;;;19.24;64.37
5651;BME280;40241;52.684;9.758;2023-08-07T06:32:34;100459.69;;;19.24;64.37
5651;BME280;40241;52.684;9.758;2023-08-07T06:34:59;100469.38;;;19.23;64.55
5651;BME280;40241;52.684;9.758;2023-08-07T06:37:25;100461.75;;;19.24;64.56
5651;BME280;40241;52.684;9.758;2023-08-07T06:39:50;100459.50;;;19.22;64.56
5651;BME280;40241;52.684;9.758;2023-08-07T06:42:15;100467.50;;;19.26;64.65
5651;BME280;40241;52.684;9.758;2023-08-07T06:44:41;100454.50;;;19.28;64.70
5651;BME280;40241;52.684;9.758;2023-08-07T06:47:07;100460.44;;;19.32;64.55
5651;BME280;40241;52.684;9.758;2023-08-07T06:49:32;100464.00;;;19.33;64.47
5651;BME280;40241;52.684;9.758;2023-08-07T06:51:58;100471.59;;;19.32;64.55
5651;BME280;40241;52.684;9.758;2023-08-07T06:54:23;100465.84;;;19.30;64.57
5651;BME280;40241;52.684;9.758;2023-08-07T06:56:49;100472.16;;;19.31;64.56
5651;BME280;40241;52.684;9.758;2023-08-07T06:59:14;100481.44;;;19.33;64.45
5651;BME280;40241;52.684;9.758;2023-08-07T07:01:40;100477.41;;;19.34;64.50
5651;BME280;40241;52.684;9.758;2023-08-07T07:04:05;100474.63;;;19.34;64.54
5651;BME280;40241;52.684;9.758;2023-08-07T07:06:30;100480.56;;;19.38;64.43
5651;BME280;40241;52.684;9.758;2023-08-07T07:08:56;100477.03;;;19.38;64.80
5651;BME280;40241;52.684;9.758;2023-08-07T07:11:24;100481.69;;;19.43;64.69
5651;BME280;40241;52.684;9.758;2023-08-07T07:13:50;100482.25;;;19.41;64.69
5651;BME280;40241;52.684;9.758;2023-08-07T07:16:19;100483.16;;;19.44;64.58
5651;BME280;40241;52.684;9.758;2023-08-07T07:18:47;100486.69;;;19.44;64.68
5651;BME280;40241;52.684;9.758;2023-08-07T07:21:12;100482.44;;;19.43;64.63
5651;BME280;40241;52.684;9.758;2023-08-07T07:23:37;100478.88;;;19.43;64.52
5651;BME280;40241;52.684;9.758;2023-08-07T07:26:03;100476.84;;;19.43;64.61
5651;BME280;40241;52.684;9.758;2023-08-07T07:28:28;100475.72;;;19.47;64.82
5651;BME280;40241;52.684;9.758;2023-08-07T07:30:53;100485.38;;;19.53;64.69
5651;BME280;40241;52.684;9.758;2023-08-07T07:33:19;100485.41;;;19.61;64.85
5651;BME280;40241;52.684;9.758;2023-08-07T07:35:44;100494.31;;;19.67;64.69
5651;BME280;40241;52.684;9.758;2023-08-07T07:38:10;100493.56;;;19.66;64.50
5651;BME280;40241;52.684;9.758;2023-08-07T07:40:36;100508.09;;;19.65;64.71
5651;BME280;40241;52.684;9.758;2023-08-07T07:43:01;100503.25;;;19.65;64.46
5651;BME280;40241;52.684;9.758;2023-08-07T07:45:26;100508.28;;;19.67;64.56
5651;BME280;40241;52.684;9.758;2023-08-07T07:47:52;100501.41;;;19.68;64.88
5651;BME280;40241;52.684;9.758;2023-08-07T07:50:17;100510.13;;;19.72;64.87
5651;BME280;40241;52.684;9.758;2023-08-07T07:52:42;100501.56;;;19.77;64.83
5651;BME280;40241;52.684;9.758;2023-08-07T07:55:09;100507.50;;;19.81;64.79
5651;BME280;40241;52.684;9.758;2023-08-07T07:57:34;100502.50;;;19.87;64.61
5651;BME280;40241;52.684;9.758;2023-08-07T08:00:00;100502.84;;;19.91;64.65
5651;BME280;40241;52.684;9.758;2023-08-07T08:02:26;100500.59;;;19.97;64.42
5651;BME280;40241;52.684;9.758;2023-08-07T08:04:52;100500.97;;;20.01;64.60
5651;BME280;40241;52.684;9.758;2023-08-07T08:07:18;100501.88;;;20.11;64.63
5651;BME280;40241;52.684;9.758;2023-08-07T08:09:43;100502.59;;;20.19;64.66
5651;BME280;40241;52.684;9.758;2023-08-07T08:12:09;100507.63;;;20.29;64.46
5651;BME280;40241;52.684;9.758;2023-08-07T08:14:35;100502.59;;;20.27;64.37
5651;BME280;40241;52.684;9.758;2023-08-07T08:17:00;100510.63;;;20.23;64.46
5651;BME280;40241;52.684;9.758;2023-08-07T08:19:25;100534.84;;;20.21;64.51
5651;BME280;40241;52.684;9.758;2023-08-07T08:21:51;100540.44;;;20.13;64.60
5651;BME280;40241;52.684;9.758;2023-08-07T08:24:16;100538.19;;;20.04;64.42
5651;BME280;40241;52.684;9.758;2023-08-07T08:26:41;100539.34;;;19.93;64.45
5651;BME280;40241;52.684;9.758;2023-08-07T08:29:07;100539.16;;;19.84;64.70
5651;BME280;40241;52.684;9.758;2023-08-07T08:31:33;100540.09;;;19.79;64.64
5651;BME280;40241;52.684;9.758;2023-08-07T08:33:59;100547.38;;;19.74;64.67
5651;BME280;40241;52.684;9.758;2023-08-07T08:36:24;100528.00;;;19.69;64.48
5651;BME280;40241;52.684;9.758;2023-08-07T08:38:50;100534.91;;;19.68;64.58
5651;BME280;40241;52.684;9.758;2023-08-07T08:41:16;100542.50;;;19.67;64.81
5651;BME280;40241;52.684;9.758;2023-08-07T08:43:43;100549.75;;;19.70;64.79
5651;BME280;40241;52.684;9.758;2023-08-07T08:46:10;100549.03;;;19.77;65.00
5651;BME280;40241;52.684;9.758;2023-08-07T08:48:38;100550.88;;;19.82;64.94
5651;BME280;40241;52.684;9.758;2023-08-07T08:51:04;100550.88;;;19.90;65.02
5651;BME280;40241;52.684;9.758;2023-08-07T08:53:31;100554.22;;;19.96;64.78
5651;BME280;40241;52.684;9.758;2023-08-07T08:55:57;100559.25;;;19.97;64.84
5651;BME280;40241;52.684;9.758;2023-08-07T08:58:22;100559.03;;;20.03;64.86
5651;BME280;40241;52.684;9.758;2023-08-07T09:00:48;100554.56;;;20.15;64.82
5651;BME280;40241;52.684;9.758;2023-08-07T09:03:14;100565.38;;;20.26;64.68
5651;BME280;40241;52.684;9.758;2023-08-07T09:05:41;100559.75;;;20.34;64.52
5651;BME280;40241;52.684;9.758;2023-08-07T09:08:07;100560.88;;;20.38;64.57
5651;BME280;40241;52.684;9.758;2023-08-07T09:10:34;100562.91;;;20.45;64.51
5651;BME280;40241;52.684;9.758;2023-08-07T09:13:04;100567.19;;;20.46;64.53
5651;BME280;40241;52.684;9.758;2023-08-07T09:15:35;100567.56;;;20.43;64.41
5651;BME280;40241;52.684;9.758;2023-08-07T09:18:03;100572.63;;;20.37;64.20
5651;BME280;40241;52.684;9.758;2023-08-07T09:20:32;100569.81;;;20.29;64.20
5651;BME280;40241;52.684;9.758;2023-08-07T09:22:59;100577.28;;;20.19;64.40
5651;BME280;40241;52.684;9.758;2023-08-07T09:25:29;100573.19;;;20.12;64.68
5651;BME280;40241;52.684;9.758;2023-08-07T09:27:55;100569.88;;;20.22;64.87
5651;BME280;40241;52.684;9.758;2023-08-07T09:30:26;100573.72;;;20.34;64.94
5651;BME280;40241;52.684;9.758;2023-08-07T09:32:52;100575.00;;;20.48;64.80
5651;BME280;40241;52.684;9.758;2023-08-07T09:35:21;100581.31;;;20.63;64.65
5651;BME280;40241;52.684;9.758;2023-08-07T09:37:46;100575.84;;;20.73;64.47
5651;BME280;40241;52.684;9.758;2023-08-07T09:40:12;100571.00;;;20.81;64.43
5651;BME280;40241;52.684;9.758;2023-08-07T09:42:40;100573.75;;;20.88;64.20
5651;BME280;40241;52.684;9.758;2023-08-07T09:45:22;100583.22;;;21.01;64.12
5651;BME280;40241;52.684;9.758;2023-08-07T09:48:01;100569.03;;;21.06;64.50
5651;BME280;40241;52.684;9.758;2023-08-07T09:50:28;100583.34;;;21.10;63.98
5651;BME280;40241;52.684;9.758;2023-08-07T09:52:54;100590.47;;;21.04;63.50
5651;BME280;40241;52.684;9.758;2023-08-07T09:55:23;100585.47;;;20.95;63.48
5651;BME280;40241;52.684;9.758;2023-08-07T09:57:50;100582.47;;;20.92;63.55
5651;BME280;40241;52.684;9.758;2023-08-07T10:00:15;100589.59;;;20.86;63.41
5651;BME280;40241;52.684;9.758;2023-08-07T10:02:42;100590.16;;;20.84;63.64
5651;BME280;40241;52.684;9.758;2023-08-07T10:05:10;100579.75;;;20.77;63.25
5651;BME280;40241;52.684;9.758;2023-08-07T10:07:40;100591.16;;;20.72;63.18
5651;BME280;40241;52.684;9.758;2023-08-07T10:10:07;100597.50;;;20.72;63.34
5651;BME280;40241;52.684;9.758;2023-08-07T10:12:33;100593.53;;;20.83;62.99
5651;BME280;40241;52.684;9.758;2023-08-07T10:14:59;100597.97;;;20.93;63.16
5651;BME280;40241;52.684;9.758;2023-08-07T10:17:25;100589.75;;;21.03;62.97
5651;BME280;40241;52.684;9.758;2023-08-07T10:19:51;100599.94;;;21.16;62.94
5651;BME280;40241;52.684;9.758;2023-08-07T10:22:19;100600.81;;;21.26;62.31
5651;BME280;40241;52.684;9.758;2023-08-07T10:24:47;100599.69;;;21.29;61.91
5651;BME280;40241;52.684;9.758;2023-08-07T10:27:18;100637.44;;;21.13;61.76
5651;BME280;40241;52.684;9.758;2023-08-07T10:29:46;100646.81;;;20.92;62.24
5651;BME280;40241;52.684;9.758;2023-08-07T10:32:13;100663.31;;;20.66;62.36
5651;BME280;40241;52.684;9.758;2023-08-07T10:34:42;100654.59;;;20.39;62.53
5651;BME280;40241;52.684;9.758;2023-08-07T10:37:32;100648.22;;;20.16;62.96
5651;BME280;40241;52.684;9.758;2023-08-07T10:40:03;100642.84;;;20.10;63.15
5651;BME280;40241;52.684;9.758;2023-08-07T10:42:52;100653.09;;;20.08;62.85
5651;BME280;40241;52.684;9.758;2023-08-07T10:45:21;100657.38;;;20.01;63.13
5651;BME280;40241;52.684;9.758;2023-08-07T10:48:07;100670.41;;;20.06;63.06
5651;BME280;40241;52.684;9.758;2023-08-07T10:50:36;100660.72;;;20.00;62.91
5651;BME280;40241;52.684;9.758;2023-08-07T10:53:19;100656.97;;;19.90;62.80
5651;BME280;40241;52.684;9.758;2023-08-07T10:55:46;100660.72;;;19.85;62.97
5651;BME280;40241;52.684;9.758;2023-08-07T10:58:35;100673.94;;;19.84;63.34
5651;BME280;40241;52.684;9.758;2023-08-07T11:01:19;100660.16;;;19.86;63.58
5651;BME280;40241;52.684;9.758;2023-08-07T11:03:51;100652.69;;;19.96;63.54
5651;BME280;40241;52.684;9.758;2023-08-07T11:06:18;100649.53;;;20.07;63.25
5651;BME280;40241;52.684;9.758;2023-08-07T11:08:47;100648.09;;;20.22;63.15
5651;BME280;40241;52.684;9.758;2023-08-07T11:11:13;100641.72;;;20.36;63.04
5651;BME280;40241;52.684;9.758;2023-08-07T11:13:38;100639.09;;;20.53;62.90
5651;BME280;40241;52.684;9.758;2023-08-07T11:16:04;100652.13;;;20.66;63.07
5651;BME280;40241;52.684;9.758;2023-08-07T11:18:30;100647.66;;;20.70;63.03
5651;BME280;40241;52.684;9.758;2023-08-07T11:20:56;100644.28;;;20.64;62.83
5651;BME280;40241;52.684;9.758;2023-08-07T11:23:25;100646.75;;;20.53;62.43
5651;BME280;40241;52.684;9.758;2023-08-07T11:25:51;100651.41;;;20.43;62.30
5651;BME280;40241;52.684;9.758;2023-08-07T11:28:20;100655.69;;;20.36;62.31
5651;BME280;40241;52.684;9.758;2023-08-07T11:30:49;100653.28;;;20.25;62.48
5651;BME280;40241;52.684;9.758;2023-08-07T11:33:14;100660.91;;;20.17;62.58
5651;BME280;40241;52.684;9.758;2023-08-07T11:35:41;100660.34;;;20.11;62.53
5651;BME280;40241;52.684;9.758;2023-08-07T11:38:07;100658.50;;;20.13;62.73
5651;BME280;40241;52.684;9.758;2023-08-07T11:40:33;100657.75;;;20.28;62.82
5651;BME280;40241;52.684;9.758;2023-08-07T11:42:58;100651.06;;;20.46;62.89
5651;BME280;40241;52.684;9.758;2023-08-07T11:45:24;100662.75;;;20.67;62.68
5651;BME280;40241;52.684;9.758;2023-08-07T11:47:49;100660.84;;;20.85;62.19
5651;BME280;40241;52.684;9.758;2023-08-07T11:50:14;100657.63;;;20.88;62.04
5651;BME280;40241;52.684;9.758;2023-08-07T11:52:40;100675.50;;;21.08;61.99
5651;BME280;40241;52.684;9.758;2023-08-07T11:55:05;100677.75;;;21.10;61.42
5651;BME280;40241;52.684;9.758;2023-08-07T11:57:32;100702.56;;;20.90;60.99
5651;BME280;40241;52.684;9.758;2023-08-07T11:59:59;100724.06;;;20.65;61.74
5651;BME280;40241;52.684;9.758;2023-08-07T12:02:24;100720.34;;;20.40;62.04
5651;BME280;40241;52.684;9.758;2023-08-07T12:04:49;100731.53;;;20.25;62.56
5651;BME280;40241;52.684;9.758;2023-08-07T12:07:18;100716.78;;;20.17;62.52
5651;BME280;40241;52.684;9.758;2023-08-07T12:09:45;100721.63;;;20.09;62.63
5651;BME280;40241;52.684;9.758;2023-08-07T12:12:11;100715.47;;;20.10;62.72
5651;BME280;40241;52.684;9.758;2023-08-07T12:14:36;100710.63;;;20.18;62.48
5651;BME280;40241;52.684;9.758;2023-08-07T12:17:03;100701.53;;;20.18;62.58
5651;BME280;40241;52.684;9.758;2023-08-07T12:19:36;100713.63;;;20.21;62.28
5651;BME280;40241;52.684;9.758;2023-08-07T12:22:02;100711.41;;;20.34;62.26
5651;BME280;40241;52.684;9.758;2023-08-07T12:24:29;100708.59;;;20.49;62.13
5651;BME280;40241;52.684;9.758;2023-08-07T12:26:54;100709.16;;;20.70;61.87
5651;BME280;40241;52.684;9.758;2023-08-07T12:29:19;100710.59;;;20.86;61.52
5651;BME280;40241;52.684;9.758;2023-08-07T12:31:45;100710.19;;;20.98;61.38
5651;BME280;40241;52.684;9.758;2023-08-07T12:34:11;100712.09;;;20.87;60.83
5651;BME280;40241;52.684;9.758;2023-08-07T12:36:36;100707.84;;;20.71;60.93
5651;BME280;40241;52.684;9.758;2023-08-07T12:39:02;100711.78;;;20.61;60.95
5651;BME280;40241;52.684;9.758;2023-08-07T12:41:27;100720.75;;;20.44;61.22
5651;BME280;40241;52.684;9.758;2023-08-07T12:43:52;100724.09;;;20.35;61.14
5651;BME280;40241;52.684;9.758;2023-08-07T12:46:18;100730.81;;;20.25;61.32
5651;BME280;40241;52.684;9.758;2023-08-07T12:48:43;100737.84;;;20.18;61.03
5651;BME280;40241;52.684;9.758;2023-08-07T12:51:08;100733.34;;;20.15;61.26
5651;BME280;40241;52.684;9.758;2023-08-07T12:53:34;100723.88;;;20.18;61.30
5651;BME280;40241;52.684;9.758;2023-08-07T12:55:59;100728.53;;;20.23;60.96